Time,TemperatureF,DewpointF,PressureIn,WindDirection,WindDirectionDegrees,WindSpeedMPH,WindSpeedGustMPH,Humidity,HourlyPrecipIn,Conditions,Clouds,dailyrainin,SoftwareType,DateUTC
2013-06-30 00:01:00,66.0,63.7,29.68,North,5,0.0,0.0,92,0.00,,,0.01,meteohub,2013-06-30 04:01:00,
2013-06-30 00:04:00,65.8,63.7,29.68,North,5,0.0,0.0,93,0.00,,,0.01,meteohub,2013-06-30 04:04:00,
2013-06-30 00:07:00,65.8,63.7,29.68,North,5,0.0,0.0,93,0.00,,,0.00,meteohub,2013-06-30 04:07:00,
2013-06-30 00:12:00,65.8,64.0,29.68,North,5,0.0,0.0,94,0.00,,,0.00,meteohub,2013-06-30 04:12:00,
2013-06-30 00:17:00,65.8,63.7,29.68,North,5,0.0,0.0,93,0.00,,,0.00,meteohub,2013-06-30 04:17:00,
2013-06-30 00:22:00,65.7,63.5,29.68,NNE,14,0.0,0.0,93,0.00,,,0.00,meteohub,2013-06-30 04:22:00,
2013-06-30 00:27:00,65.5,63.3,29.68,NNE,14,0.0,0.0,93,0.00,,,0.00,meteohub,2013-06-30 04:27:00,
2013-06-30 00:32:00,65.5,63.7,29.68,NNE,14,0.0,0.0,94,0.00,,,0.00,meteohub,2013-06-30 04:32:00,
2013-06-30 00:34:00,65.5,63.7,29.68,NNE,14,0.0,0.0,94,0.00,,,0.00,meteohub,2013-06-30 04:34:00,
2013-06-30 00:40:00,65.3,63.1,29.68,NNE,14,0.0,0.0,93,0.00,,,0.00,meteohub,2013-06-30 04:40:00,
2013-06-30 00:46:00,65.1,63.3,29.69,NNE,21,0.0,1.0,94,0.00,,,0.00,meteohub,2013-06-30 04:46:00,
2013-06-30 00:52:00,65.1,63.0,29.69,NNE,21,0.0,1.0,93,0.00,,,0.00,meteohub,2013-06-30 04:52:00,
2013-06-30 00:57:00,64.8,62.6,29.69,East,83,0.0,1.0,93,0.00,,,0.00,meteohub,2013-06-30 04:57:00,
2013-06-30 01:02:00,64.8,63.0,29.69,East,79,2.0,2.0,94,0.00,,,0.00,meteohub,2013-06-30 05:02:00,
2013-06-30 01:07:00,64.9,63.1,29.68,ESE,123,0.0,2.0,94,0.00,,,0.00,meteohub,2013-06-30 05:07:00,
2013-06-30 01:12:00,64.9,63.1,29.69,SE,132,0.0,2.0,94,0.00,,,0.00,meteohub,2013-06-30 05:12:00,
2013-06-30 01:17:00,64.9,63.1,29.69,SE,136,0.0,2.0,94,0.00,,,0.00,meteohub,2013-06-30 05:17:00,
2013-06-30 01:22:00,64.9,63.1,29.69,SE,136,0.0,1.0,94,0.00,,,0.00,meteohub,2013-06-30 05:22:00,
2013-06-30 01:27:00,64.8,63.0,29.69,SE,136,0.0,1.0,94,0.00,,,0.00,meteohub,2013-06-30 05:27:00,
2013-06-30 01:32:00,64.6,62.8,29.70,SE,136,0.0,1.0,94,0.00,,,0.00,meteohub,2013-06-30 05:32:00,
2013-06-30 01:37:00,64.6,62.8,29.69,SE,129,0.0,1.0,94,0.00,,,0.00,meteohub,2013-06-30 05:37:00,
2013-06-30 01:42:00,64.4,62.6,29.69,ESE,123,0.0,1.0,94,0.00,,,0.00,meteohub,2013-06-30 05:42:00,
2013-06-30 01:47:00,64.2,62.4,29.69,ESE,123,0.0,1.0,94,0.00,,,0.00,meteohub,2013-06-30 05:47:00,
2013-06-30 01:52:00,64.2,62.4,29.69,ESE,123,0.0,1.0,94,0.00,,,0.00,meteohub,2013-06-30 05:52:00,
2013-06-30 01:57:00,64.0,62.6,29.69,ESE,123,0.0,1.0,95,0.00,,,0.00,meteohub,2013-06-30 05:57:00,
2013-06-30 02:02:00,64.0,62.6,29.69,ESE,123,0.0,1.0,95,0.00,,,0.00,meteohub,2013-06-30 06:02:00,
2013-06-30 02:07:00,64.2,62.8,29.69,ESE,123,0.0,0.0,95,0.00,,,0.00,meteohub,2013-06-30 06:07:00,
2013-06-30 02:12:00,64.2,62.8,29.69,ESE,123,0.0,0.0,95,0.00,,,0.00,meteohub,2013-06-30 06:12:00,
2013-06-30 02:17:00,64.2,62.8,29.69,ESE,123,0.0,0.0,95,0.00,,,0.00,meteohub,2013-06-30 06:17:00,
2013-06-30 02:22:00,64.2,62.8,29.69,ESE,123,0.0,0.0,95,0.00,,,0.00,meteohub,2013-06-30 06:22:00,
2013-06-30 02:27:00,64.2,62.8,29.69,ESE,123,0.0,0.0,95,0.00,,,0.00,meteohub,2013-06-30 06:27:00,
2013-06-30 02:32:00,64.0,62.2,29.69,ESE,123,0.0,0.0,94,0.00,,,0.00,meteohub,2013-06-30 06:32:00,
2013-06-30 02:38:00,63.9,62.4,29.69,SE,126,0.0,0.0,95,0.00,,,0.00,meteohub,2013-06-30 06:38:00,
2013-06-30 02:44:00,64.0,62.6,29.69,SE,126,0.0,0.0,95,0.00,,,0.00,meteohub,2013-06-30 06:44:00,
2013-06-30 02:50:00,63.9,62.4,29.69,SE,126,0.0,0.0,95,0.00,,,0.00,meteohub,2013-06-30 06:50:00,
2013-06-30 02:56:00,63.9,62.4,29.69,SE,126,0.0,0.0,95,0.00,,,0.00,meteohub,2013-06-30 06:56:00,
2013-06-30 03:02:00,63.5,61.7,29.68,SE,126,0.0,0.0,94,0.00,,,0.00,meteohub,2013-06-30 07:02:00,
2013-06-30 03:07:00,63.3,61.5,29.68,SE,126,0.0,0.0,94,0.00,,,0.00,meteohub,2013-06-30 07:07:00,
2013-06-30 03:12:00,63.3,61.9,29.68,SE,126,0.0,0.0,95,0.00,,,0.00,meteohub,2013-06-30 07:12:00,
2013-06-30 03:17:00,63.3,61.9,29.68,SE,126,0.0,0.0,95,0.00,,,0.00,meteohub,2013-06-30 07:17:00,
2013-06-30 03:22:00,63.1,61.7,29.68,North,0,0.0,2.0,95,0.00,,,0.00,meteohub,2013-06-30 07:22:00,
2013-06-30 03:27:00,63.0,61.5,29.68,North,0,0.0,2.0,95,0.00,,,0.00,meteohub,2013-06-30 07:27:00,
2013-06-30 03:32:00,62.8,61.3,29.68,North,0,0.0,2.0,95,0.00,,,0.00,meteohub,2013-06-30 07:32:00,
2013-06-30 03:37:00,62.6,61.2,29.68,North,0,0.0,0.0,95,0.00,,,0.00,meteohub,2013-06-30 07:37:00,
2013-06-30 03:45:00,62.4,61.3,29.68,North,0,0.0,1.0,96,0.00,,,0.00,meteohub,2013-06-30 07:45:00,
2013-06-30 03:51:00,62.2,60.8,29.68,North,0,0.0,1.0,95,0.00,,,0.00,meteohub,2013-06-30 07:51:00,
2013-06-30 03:57:00,62.1,60.6,29.68,North,0,0.0,0.0,95,0.00,,,0.00,meteohub,2013-06-30 07:57:00,
2013-06-30 04:02:00,62.1,60.6,29.69,North,5,0.0,0.0,95,0.00,,,0.00,meteohub,2013-06-30 08:02:00,
2013-06-30 04:07:00,62.1,61.0,29.69,ESE,114,1.0,1.0,96,0.00,,,0.00,meteohub,2013-06-30 08:07:00,
2013-06-30 04:12:00,61.9,60.8,29.68,ESE,114,0.0,1.0,96,0.00,,,0.00,meteohub,2013-06-30 08:12:00,
2013-06-30 04:17:00,62.1,61.0,29.69,SE,137,0.0,1.0,96,0.00,,,0.00,meteohub,2013-06-30 08:17:00,
2013-06-30 04:22:00,62.1,61.0,29.69,SE,137,0.0,1.0,96,0.00,,,0.00,meteohub,2013-06-30 08:22:00,
2013-06-30 04:27:00,62.1,61.0,29.69,SE,137,0.0,1.0,96,0.00,,,0.00,meteohub,2013-06-30 08:27:00,
2013-06-30 04:32:00,62.1,61.0,29.69,SE,137,0.0,1.0,96,0.00,,,0.00,meteohub,2013-06-30 08:32:00,
2013-06-30 04:37:00,62.1,61.0,29.69,SE,137,0.0,1.0,96,0.00,,,0.00,meteohub,2013-06-30 08:37:00,
2013-06-30 04:42:00,61.9,60.8,29.69,SE,137,0.0,1.0,96,0.00,,,0.00,meteohub,2013-06-30 08:42:00,
2013-06-30 04:45:00,61.7,60.6,29.69,SE,137,0.0,1.0,96,0.00,,,0.00,meteohub,2013-06-30 08:45:00,
2013-06-30 04:51:00,61.5,60.4,29.69,SE,137,0.0,2.0,96,0.00,,,0.00,meteohub,2013-06-30 08:51:00,
2013-06-30 04:57:00,61.5,60.4,29.69,SE,137,0.0,2.0,96,0.00,,,0.00,meteohub,2013-06-30 08:57:00,
2013-06-30 05:02:00,61.5,60.4,29.69,SE,137,0.0,2.0,96,0.00,,,0.00,meteohub,2013-06-30 09:02:00,
2013-06-30 05:07:00,61.3,60.3,29.70,SE,137,0.0,0.0,96,0.00,,,0.00,meteohub,2013-06-30 09:07:00,
2013-06-30 05:12:00,61.3,60.3,29.70,SE,137,0.0,1.0,96,0.00,,,0.00,meteohub,2013-06-30 09:12:00,
2013-06-30 05:17:00,61.5,60.4,29.70,SE,137,0.0,1.0,96,0.00,,,0.00,meteohub,2013-06-30 09:17:00,
2013-06-30 05:22:00,61.5,60.4,29.70,SE,137,0.0,1.0,96,0.00,,,0.00,meteohub,2013-06-30 09:22:00,
2013-06-30 05:27:00,61.5,60.4,29.71,SE,137,0.0,1.0,96,0.00,,,0.00,meteohub,2013-06-30 09:27:00,
2013-06-30 05:32:00,61.5,60.6,29.71,SE,137,0.0,0.0,97,0.00,,,0.00,meteohub,2013-06-30 09:32:00,
2013-06-30 05:39:00,61.5,60.6,29.72,SE,137,0.0,0.0,97,0.00,,,0.00,meteohub,2013-06-30 09:39:00,
2013-06-30 05:45:00,61.5,60.6,29.72,SE,137,0.0,0.0,97,0.00,,,0.00,meteohub,2013-06-30 09:45:00,
2013-06-30 05:51:00,61.3,60.4,29.72,SE,137,0.0,0.0,97,0.00,,,0.00,meteohub,2013-06-30 09:51:00,
2013-06-30 05:57:00,61.3,60.4,29.72,SE,137,0.0,0.0,97,0.00,,,0.00,meteohub,2013-06-30 09:57:00,
2013-06-30 06:02:00,61.3,60.4,29.72,SE,137,0.0,0.0,97,0.00,,,0.00,meteohub,2013-06-30 10:02:00,
2013-06-30 06:07:00,61.3,60.4,29.73,SE,137,0.0,0.0,97,0.00,,,0.00,meteohub,2013-06-30 10:07:00,
2013-06-30 06:12:00,61.5,60.6,29.73,SE,137,0.0,0.0,97,0.00,,,0.00,meteohub,2013-06-30 10:12:00,
2013-06-30 06:17:00,61.7,60.8,29.73,SE,137,0.0,0.0,97,0.00,,,0.00,meteohub,2013-06-30 10:17:00,
2013-06-30 06:22:00,61.9,61.0,29.73,SE,137,0.0,0.0,97,0.00,,,0.00,meteohub,2013-06-30 10:22:00,
2013-06-30 06:28:00,61.9,61.0,29.73,SE,137,0.0,0.0,97,0.00,,,0.00,meteohub,2013-06-30 10:28:00,
2013-06-30 06:34:00,62.1,61.2,29.73,SE,137,0.0,0.0,97,0.00,,,0.00,meteohub,2013-06-30 10:34:00,
2013-06-30 06:40:00,62.2,61.3,29.73,SE,137,1.0,0.0,97,0.00,,,0.00,meteohub,2013-06-30 10:40:00,
2013-06-30 06:46:00,62.2,61.3,29.73,SE,137,0.0,1.0,97,0.00,,,0.00,meteohub,2013-06-30 10:46:00,
2013-06-30 06:52:00,62.4,61.5,29.74,SE,137,0.0,1.0,97,0.00,,,0.00,meteohub,2013-06-30 10:52:00,
2013-06-30 06:57:00,62.4,61.5,29.74,SE,136,0.0,1.0,97,0.01,,,0.01,meteohub,2013-06-30 10:57:00,
2013-06-30 07:02:00,62.6,61.7,29.74,SE,136,0.0,0.0,97,0.01,,,0.01,meteohub,2013-06-30 11:02:00,
2013-06-30 07:07:00,62.8,61.9,29.74,SE,136,0.0,0.0,97,0.01,,,0.01,meteohub,2013-06-30 11:07:00,
2013-06-30 07:12:00,63.0,62.1,29.74,SE,136,0.0,0.0,97,0.01,,,0.01,meteohub,2013-06-30 11:12:00,
2013-06-30 07:17:00,63.1,62.2,29.74,SE,136,0.0,0.0,97,0.01,,,0.01,meteohub,2013-06-30 11:17:00,
2013-06-30 07:22:00,63.3,62.4,29.74,SE,136,0.0,0.0,97,0.01,,,0.01,meteohub,2013-06-30 11:22:00,
2013-06-30 07:27:00,63.7,62.8,29.75,SE,136,0.0,0.0,97,0.01,,,0.01,meteohub,2013-06-30 11:27:00,
2013-06-30 07:34:00,63.9,63.0,29.75,SE,136,0.0,0.0,97,0.01,,,0.01,meteohub,2013-06-30 11:34:00,
2013-06-30 07:40:00,63.7,62.8,29.75,SE,136,0.0,0.0,97,0.01,,,0.01,meteohub,2013-06-30 11:40:00,
2013-06-30 07:46:00,64.2,63.3,29.75,SE,136,0.0,0.0,97,0.01,,,0.01,meteohub,2013-06-30 11:46:00,
2013-06-30 07:52:00,64.0,63.1,29.75,North,349,0.0,2.0,97,0.01,,,0.01,meteohub,2013-06-30 11:52:00,
2013-06-30 07:57:00,63.9,63.0,29.75,North,349,0.0,2.0,97,0.00,,,0.01,meteohub,2013-06-30 11:57:00,
2013-06-30 08:02:00,63.7,62.8,29.75,North,349,0.0,2.0,97,0.00,,,0.01,meteohub,2013-06-30 12:02:00,
2013-06-30 08:07:00,64.0,63.1,29.75,North,349,0.0,1.0,97,0.00,,,0.01,meteohub,2013-06-30 12:07:00,
2013-06-30 08:13:00,64.8,64.2,29.75,North,349,0.0,0.0,98,0.00,,,0.01,meteohub,2013-06-30 12:13:00,
2013-06-30 08:19:00,64.9,64.0,29.76,North,349,0.0,0.0,97,0.00,,,0.01,meteohub,2013-06-30 12:19:00,
2013-06-30 08:25:00,64.9,64.0,29.76,North,349,0.0,0.0,97,0.00,,,0.01,meteohub,2013-06-30 12:25:00,
2013-06-30 08:32:00,65.1,64.2,29.76,NNW,339,0.0,0.0,97,0.00,,,0.01,meteohub,2013-06-30 12:32:00,
2013-06-30 08:37:00,65.1,64.2,29.76,NNW,338,1.0,3.0,97,0.00,,,0.01,meteohub,2013-06-30 12:37:00,
2013-06-30 08:44:00,65.1,64.2,29.77,NNW,338,0.0,3.0,97,0.00,,,0.01,meteohub,2013-06-30 12:44:00,
2013-06-30 08:50:00,65.1,64.2,29.77,NNW,338,0.0,1.0,97,0.00,,,0.01,meteohub,2013-06-30 12:50:00,
2013-06-30 08:56:00,64.9,64.0,29.77,NNW,338,0.0,1.0,97,0.00,,,0.01,meteohub,2013-06-30 12:56:00,
2013-06-30 09:02:00,64.9,64.0,29.78,SSE,150,0.0,0.0,97,0.00,,,0.01,meteohub,2013-06-30 13:02:00,
2013-06-30 09:07:00,65.1,64.2,29.78,SSE,150,0.0,1.0,97,0.00,,,0.01,meteohub,2013-06-30 13:07:00,
2013-06-30 09:12:00,65.1,64.2,29.77,ESE,106,0.0,2.0,97,0.00,,,0.01,meteohub,2013-06-30 13:12:00,
2013-06-30 09:17:00,65.5,64.6,29.77,ESE,106,0.0,2.0,97,0.00,,,0.01,meteohub,2013-06-30 13:17:00,
2013-06-30 09:22:00,65.7,64.8,29.77,ESE,106,0.0,2.0,97,0.00,,,0.01,meteohub,2013-06-30 13:22:00,
2013-06-30 09:29:00,65.8,64.9,29.77,ESE,106,0.0,1.0,97,0.00,,,0.01,meteohub,2013-06-30 13:29:00,
2013-06-30 09:35:00,66.0,65.1,29.76,ESE,106,0.0,0.0,97,0.00,,,0.01,meteohub,2013-06-30 13:35:00,
2013-06-30 09:41:00,66.6,65.7,29.77,ESE,106,0.0,0.0,97,0.00,,,0.01,meteohub,2013-06-30 13:41:00,
2013-06-30 09:47:00,66.9,65.7,29.77,ESE,106,0.0,0.0,96,0.00,,,0.01,meteohub,2013-06-30 13:47:00,
2013-06-30 09:53:00,67.5,66.0,29.76,NNE,15,1.0,1.0,95,0.00,,,0.01,meteohub,2013-06-30 13:53:00,
2013-06-30 09:59:00,67.8,66.0,29.76,North,0,0.0,2.0,94,0.00,,,0.01,meteohub,2013-06-30 13:59:00,
2013-06-30 10:05:00,68.2,66.0,29.76,North,0,0.0,2.0,93,0.00,,,0.01,meteohub,2013-06-30 14:05:00,
2013-06-30 10:12:00,68.4,66.2,29.77,NNW,348,0.0,2.0,93,0.00,,,0.01,meteohub,2013-06-30 14:12:00,
2013-06-30 10:17:00,68.5,66.2,29.76,NNW,348,0.0,2.0,92,0.00,,,0.01,meteohub,2013-06-30 14:17:00,
2013-06-30 10:22:00,69.1,66.7,29.76,NNW,345,1.0,2.0,92,0.00,,,0.01,meteohub,2013-06-30 14:22:00,
2013-06-30 10:27:00,69.4,67.1,29.75,NNW,340,1.0,2.0,92,0.00,,,0.01,meteohub,2013-06-30 14:27:00,
2013-06-30 10:33:00,70.2,67.1,29.76,SW,230,0.0,2.0,90,0.00,,,0.01,meteohub,2013-06-30 14:33:00,
2013-06-30 10:39:00,70.5,67.1,29.75,WSW,243,0.0,2.0,89,0.00,,,0.01,meteohub,2013-06-30 14:39:00,
2013-06-30 10:45:00,71.2,67.8,29.75,NW,311,0.0,2.0,89,0.00,,,0.01,meteohub,2013-06-30 14:45:00,
2013-06-30 10:51:00,72.0,68.2,29.75,NW,307,0.0,4.0,88,0.00,,,0.01,meteohub,2013-06-30 14:51:00,
2013-06-30 10:57:00,72.7,68.2,29.75,NNW,330,1.0,4.0,86,0.00,,,0.01,meteohub,2013-06-30 14:57:00,
2013-06-30 11:02:00,73.2,68.7,29.75,NNW,329,0.0,4.0,86,0.00,,,0.01,meteohub,2013-06-30 15:02:00,
2013-06-30 11:07:00,73.8,68.5,29.75,NNW,335,2.0,3.0,84,0.00,,,0.01,meteohub,2013-06-30 15:07:00,
2013-06-30 11:12:00,73.9,69.1,29.75,NNW,332,0.0,4.0,85,0.00,,,0.01,meteohub,2013-06-30 15:12:00,
2013-06-30 11:18:00,74.3,68.7,29.75,NW,306,1.0,4.0,83,0.00,,,0.01,meteohub,2013-06-30 15:18:00,
2013-06-30 11:24:00,75.0,69.1,29.75,NNW,331,4.0,4.0,82,0.00,,,0.01,meteohub,2013-06-30 15:24:00,
2013-06-30 11:31:00,75.4,68.7,29.75,NNW,331,0.0,4.0,80,0.00,,,0.01,meteohub,2013-06-30 15:31:00,
2013-06-30 11:37:00,75.7,69.1,29.75,NW,324,0.0,4.0,80,0.00,,,0.01,meteohub,2013-06-30 15:37:00,
2013-06-30 11:43:00,76.5,70.2,29.75,NW,326,0.0,4.0,81,0.00,,,0.01,meteohub,2013-06-30 15:43:00,
2013-06-30 11:49:00,77.2,69.8,29.75,NNW,333,0.0,3.0,78,0.00,,,0.01,meteohub,2013-06-30 15:49:00,
2013-06-30 11:55:00,77.7,71.1,29.75,ENE,65,1.0,4.0,80,0.00,,,0.01,meteohub,2013-06-30 15:55:00,
2013-06-30 12:01:00,79.0,72.7,29.75,NW,315,2.0,4.0,81,0.00,,,0.01,meteohub,2013-06-30 16:01:00,
2013-06-30 12:07:00,79.7,71.1,29.75,NW,325,1.0,4.0,75,0.00,,,0.01,meteohub,2013-06-30 16:07:00,
2013-06-30 12:13:00,80.8,70.9,29.75,NNW,329,0.0,4.0,72,0.00,,,0.01,meteohub,2013-06-30 16:13:00,
2013-06-30 12:19:00,81.5,71.2,29.75,NW,325,2.0,3.0,71,0.00,,,0.01,meteohub,2013-06-30 16:19:00,
2013-06-30 12:25:00,81.9,72.0,29.75,NW,326,1.0,4.0,72,0.00,,,0.01,meteohub,2013-06-30 16:25:00,
2013-06-30 12:31:00,82.0,71.2,29.75,NW,323,1.0,4.0,70,0.00,,,0.01,meteohub,2013-06-30 16:31:00,
2013-06-30 12:37:00,82.0,71.2,29.75,North,349,1.0,4.0,70,0.00,,,0.01,meteohub,2013-06-30 16:37:00,
2013-06-30 12:43:00,82.2,72.0,29.75,NW,320,1.0,4.0,71,0.00,,,0.01,meteohub,2013-06-30 16:43:00,
2013-06-30 12:49:00,82.8,72.9,29.75,NNW,333,0.0,4.0,72,0.00,,,0.01,meteohub,2013-06-30 16:49:00,
2013-06-30 12:55:00,83.1,72.0,29.75,East,96,0.0,4.0,69,0.00,,,0.01,meteohub,2013-06-30 16:55:00,
2013-06-30 13:01:00,82.8,71.6,29.75,NW,322,0.0,4.0,69,0.00,,,0.01,meteohub,2013-06-30 17:01:00,
2013-06-30 13:07:00,82.8,72.9,29.75,NW,322,0.0,4.0,72,0.00,,,0.01,meteohub,2013-06-30 17:07:00,
2013-06-30 13:12:00,83.1,73.9,29.75,NW,322,0.0,3.0,74,0.00,,,0.01,meteohub,2013-06-30 17:12:00,
2013-06-30 13:17:00,83.5,69.6,29.75,SE,139,0.0,2.0,63,0.00,,,0.01,meteohub,2013-06-30 17:17:00,
2013-06-30 13:22:00,83.1,70.5,29.75,SE,146,0.0,2.0,66,0.00,,,0.01,meteohub,2013-06-30 17:22:00,
2013-06-30 13:27:00,82.8,68.9,29.74,SE,142,0.0,1.0,63,0.00,,,0.01,meteohub,2013-06-30 17:27:00,
2013-06-30 13:32:00,82.9,72.5,29.74,WSW,257,0.0,1.0,71,0.00,,,0.01,meteohub,2013-06-30 17:32:00,
2013-06-30 13:38:00,83.8,70.3,29.74,SW,233,0.0,2.0,64,0.00,,,0.01,meteohub,2013-06-30 17:38:00,
2013-06-30 13:44:00,85.1,71.1,29.74,SSE,148,1.0,3.0,63,0.00,,,0.01,meteohub,2013-06-30 17:44:00,
2013-06-30 13:50:00,86.2,72.5,29.74,SE,130,0.0,3.0,64,0.00,,,0.01,meteohub,2013-06-30 17:50:00,
2013-06-30 13:56:00,87.1,72.9,29.74,South,188,1.0,3.0,63,0.00,,,0.01,meteohub,2013-06-30 17:56:00,
2013-06-30 14:02:00,87.6,70.0,29.73,South,175,0.0,3.0,56,0.00,,,0.01,meteohub,2013-06-30 18:02:00,
2013-06-30 14:07:00,88.0,70.3,29.73,NNW,333,0.0,3.0,56,0.00,,,0.01,meteohub,2013-06-30 18:07:00,
2013-06-30 14:12:00,87.4,71.4,29.73,South,186,0.0,2.0,59,0.00,,,0.01,meteohub,2013-06-30 18:12:00,
2013-06-30 14:17:00,88.0,71.8,29.73,South,184,0.0,2.0,59,0.00,,,0.01,meteohub,2013-06-30 18:17:00,
2013-06-30 14:22:00,88.0,70.9,29.73,SSE,165,1.0,3.0,57,0.00,,,0.01,meteohub,2013-06-30 18:22:00,
2013-06-30 14:27:00,88.0,69.3,29.73,SW,236,2.0,3.0,54,0.00,,,0.01,meteohub,2013-06-30 18:27:00,
2013-06-30 14:32:00,88.0,70.3,29.72,SSE,160,0.0,4.0,56,0.00,,,0.01,meteohub,2013-06-30 18:32:00,
2013-06-30 14:37:00,88.5,69.8,29.72,WNW,286,2.0,4.0,54,0.00,,,0.01,meteohub,2013-06-30 18:37:00,
2013-06-30 14:44:00,88.2,70.0,29.72,SSE,153,0.0,4.0,55,0.00,,,0.01,meteohub,2013-06-30 18:44:00,
2013-06-30 14:50:00,86.7,69.1,29.72,SE,137,0.0,3.0,56,0.00,,,0.01,meteohub,2013-06-30 18:50:00,
2013-06-30 14:56:00,86.4,70.3,29.71,South,184,0.0,3.0,59,0.00,,,0.01,meteohub,2013-06-30 18:56:00,
2013-06-30 15:02:00,86.9,69.8,29.72,West,277,1.0,2.0,57,0.00,,,0.01,meteohub,2013-06-30 19:02:00,
2013-06-30 15:07:00,86.5,69.4,29.71,West,265,0.0,2.0,57,0.00,,,0.01,meteohub,2013-06-30 19:07:00,
2013-06-30 15:12:00,86.4,69.8,29.72,SW,229,0.0,2.0,58,0.00,,,0.01,meteohub,2013-06-30 19:12:00,
2013-06-30 15:17:00,86.2,69.6,29.71,SSE,155,1.0,3.0,58,0.00,,,0.01,meteohub,2013-06-30 19:17:00,
2013-06-30 15:22:00,86.9,69.3,29.71,SE,143,2.0,3.0,56,0.00,,,0.01,meteohub,2013-06-30 19:22:00,
2013-06-30 15:27:00,87.6,69.4,29.71,SSE,161,1.0,3.0,55,0.00,,,0.01,meteohub,2013-06-30 19:27:00,
2013-06-30 15:33:00,87.4,69.3,29.71,SSE,154,1.0,7.0,55,0.00,,,0.01,meteohub,2013-06-30 19:33:00,
2013-06-30 15:39:00,86.5,69.4,29.72,SSE,150,0.0,7.0,57,0.00,,,0.01,meteohub,2013-06-30 19:39:00,
2013-06-30 15:45:00,85.8,69.3,29.71,SSE,163,0.0,7.0,58,0.00,,,0.01,meteohub,2013-06-30 19:45:00,
2013-06-30 15:51:00,85.3,68.9,29.72,SE,144,2.0,2.0,58,0.00,,,0.01,meteohub,2013-06-30 19:51:00,
2013-06-30 15:57:00,84.4,68.5,29.72,South,191,0.0,3.0,59,0.00,,,0.01,meteohub,2013-06-30 19:57:00,
2013-06-30 16:02:00,83.8,68.9,29.72,South,187,0.0,3.0,61,0.00,,,0.01,meteohub,2013-06-30 20:02:00,
2013-06-30 16:07:00,83.5,69.1,29.72,South,186,0.0,3.0,62,0.00,,,0.01,meteohub,2013-06-30 20:07:00,
2013-06-30 16:12:00,83.1,69.3,29.72,South,183,0.0,1.0,63,0.00,,,0.01,meteohub,2013-06-30 20:12:00,
2013-06-30 16:18:00,82.9,70.0,29.72,South,183,0.0,0.0,65,0.00,,,0.01,meteohub,2013-06-30 20:18:00,
2013-06-30 16:25:00,82.6,70.0,29.72,South,183,0.0,0.0,66,0.00,,,0.01,meteohub,2013-06-30 20:25:00,
2013-06-30 16:31:00,82.0,70.0,29.72,South,183,0.0,0.0,67,0.00,,,0.01,meteohub,2013-06-30 20:31:00,
2013-06-30 16:37:00,81.9,71.1,29.73,South,183,0.0,0.0,70,0.00,,,0.01,meteohub,2013-06-30 20:37:00,
2013-06-30 16:42:00,81.5,72.0,29.72,South,183,0.0,0.0,73,0.00,,,0.01,meteohub,2013-06-30 20:42:00,
2013-06-30 16:47:00,81.1,72.5,29.73,South,183,0.0,0.0,75,0.00,,,0.01,meteohub,2013-06-30 20:47:00,
2013-06-30 16:52:00,80.2,72.0,29.73,South,182,0.0,0.0,76,0.00,,,0.01,meteohub,2013-06-30 20:52:00,
2013-06-30 16:58:00,79.3,72.3,29.73,SE,136,0.0,0.0,79,0.00,,,0.01,meteohub,2013-06-30 20:58:00,
2013-06-30 17:04:00,78.4,72.5,29.73,NW,310,0.0,1.0,82,0.00,,,0.01,meteohub,2013-06-30 21:04:00,
2013-06-30 17:10:00,77.5,72.3,29.73,NW,317,1.0,2.0,84,0.00,,,0.01,meteohub,2013-06-30 21:10:00,
2013-06-30 17:16:00,77.0,72.5,29.74,ESE,103,0.0,2.0,86,0.00,,,0.01,meteohub,2013-06-30 21:16:00,
2013-06-30 17:22:00,76.5,71.6,29.74,SSW,195,0.0,3.0,85,0.00,,,0.01,meteohub,2013-06-30 21:22:00,
2013-06-30 17:27:00,76.3,71.4,29.74,ESE,123,0.0,3.0,85,0.00,,,0.01,meteohub,2013-06-30 21:27:00,
2013-06-30 17:32:00,75.7,70.9,29.75,SE,142,1.0,3.0,85,0.00,,,0.01,meteohub,2013-06-30 21:32:00,
2013-06-30 17:38:00,75.4,69.4,29.74,SSW,205,1.0,2.0,82,0.00,,,0.01,meteohub,2013-06-30 21:38:00,
2013-06-30 17:44:00,74.8,69.3,29.74,SSE,147,0.0,3.0,83,0.00,,,0.01,meteohub,2013-06-30 21:44:00,
2013-06-30 17:50:00,74.1,68.5,29.74,SW,215,0.0,3.0,83,0.00,,,0.01,meteohub,2013-06-30 21:50:00,
2013-06-30 17:56:00,73.6,67.8,29.74,East,90,1.0,2.0,82,0.00,,,0.01,meteohub,2013-06-30 21:56:00,
2013-06-30 18:02:00,73.4,67.6,29.73,SSW,200,0.0,2.0,82,0.00,,,0.01,meteohub,2013-06-30 22:02:00,
2013-06-30 18:08:00,73.4,68.0,29.73,WNW,286,2.0,2.0,83,0.00,,,0.01,meteohub,2013-06-30 22:08:00,
2013-06-30 18:14:00,73.9,69.1,29.73,NW,325,1.0,1.0,85,0.00,,,0.01,meteohub,2013-06-30 22:14:00,
2013-06-30 18:20:00,74.5,69.3,29.73,NW,309,0.0,3.0,84,0.00,,,0.01,meteohub,2013-06-30 22:20:00,
2013-06-30 18:27:00,74.8,69.3,29.74,NW,307,1.0,3.0,83,0.00,,,0.01,meteohub,2013-06-30 22:27:00,
2013-06-30 18:32:00,74.7,67.6,29.74,South,175,0.0,2.0,79,0.00,,,0.01,meteohub,2013-06-30 22:32:00,
2013-06-30 18:39:00,74.7,69.8,29.75,SE,136,0.0,2.0,85,0.00,,,0.01,meteohub,2013-06-30 22:39:00,
2013-06-30 18:45:00,74.5,68.9,29.75,SE,136,0.0,2.0,83,0.00,,,0.01,meteohub,2013-06-30 22:45:00,
2013-06-30 18:51:00,74.1,68.9,29.75,NW,318,4.0,4.0,84,0.00,,,0.01,meteohub,2013-06-30 22:51:00,
2013-06-30 18:57:00,73.9,68.4,29.75,NNW,331,0.0,4.0,83,0.00,,,0.01,meteohub,2013-06-30 22:57:00,
2013-06-30 19:02:00,73.9,69.1,29.75,NNW,346,1.0,4.0,85,0.00,,,0.01,meteohub,2013-06-30 23:02:00,
2013-06-30 19:07:00,73.8,66.9,29.75,WSW,247,0.0,4.0,79,0.00,,,0.01,meteohub,2013-06-30 23:07:00,
2013-06-30 19:12:00,73.8,65.7,29.75,SE,137,0.0,4.0,76,0.00,,,0.01,meteohub,2013-06-30 23:12:00,
2013-06-30 19:17:00,73.9,67.5,29.76,West,277,0.0,4.0,80,0.00,,,0.01,meteohub,2013-06-30 23:17:00,
2013-06-30 19:22:00,73.9,66.2,29.76,NW,325,1.0,2.0,77,0.00,,,0.01,meteohub,2013-06-30 23:22:00,
2013-06-30 19:27:00,73.8,67.3,29.76,NNW,335,3.0,3.0,80,0.00,,,0.01,meteohub,2013-06-30 23:27:00,
2013-06-30 19:32:00,73.6,67.8,29.76,NW,308,0.0,3.0,82,0.00,,,0.01,meteohub,2013-06-30 23:32:00,
2013-06-30 19:37:00,73.0,67.3,29.76,NNW,336,0.0,4.0,82,0.00,,,0.01,meteohub,2013-06-30 23:37:00,
2013-06-30 19:43:00,73.0,66.9,29.76,NNW,335,0.0,4.0,81,0.00,,,0.01,meteohub,2013-06-30 23:43:00,
2013-06-30 19:49:00,73.0,66.2,29.76,NNW,335,0.0,4.0,79,0.00,,,0.01,meteohub,2013-06-30 23:49:00,
2013-06-30 19:55:00,73.2,67.1,29.77,NNW,334,0.0,2.0,81,0.00,,,0.01,meteohub,2013-06-30 23:55:00,
2013-06-30 20:01:00,73.2,67.8,29.77,NNW,334,0.0,2.0,83,0.00,,,0.01,meteohub,2013-07-01 00:01:00,
2013-06-30 20:07:00,73.0,66.6,29.76,NNW,334,0.0,0.0,80,0.00,,,0.01,meteohub,2013-07-01 00:07:00,
2013-06-30 20:13:00,73.2,67.8,29.76,SSE,168,0.0,1.0,83,0.00,,,0.01,meteohub,2013-07-01 00:13:00,
2013-06-30 20:19:00,73.2,67.8,29.76,South,190,0.0,3.0,83,0.00,,,0.01,meteohub,2013-07-01 00:19:00,
2013-06-30 20:25:00,72.9,67.1,29.77,South,186,0.0,3.0,82,0.00,,,0.01,meteohub,2013-07-01 00:25:00,
2013-06-30 20:31:00,72.7,66.9,29.77,South,185,0.0,2.0,82,0.00,,,0.01,meteohub,2013-07-01 00:31:00,
2013-06-30 20:37:00,72.7,66.9,29.76,South,185,0.0,0.0,82,0.00,,,0.01,meteohub,2013-07-01 00:37:00,
2013-06-30 20:42:00,72.7,66.6,29.77,South,185,0.0,0.0,81,0.00,,,0.01,meteohub,2013-07-01 00:42:00,
2013-06-30 20:47:00,72.5,66.7,29.77,WSW,249,0.0,0.0,82,0.00,,,0.01,meteohub,2013-07-01 00:47:00,
2013-06-30 20:52:00,72.3,66.6,29.77,West,263,0.0,0.0,82,0.00,,,0.01,meteohub,2013-07-01 00:52:00,
2013-06-30 20:59:00,72.0,66.9,29.78,NW,319,0.0,2.0,84,0.00,,,0.01,meteohub,2013-07-01 00:59:00,
2013-06-30 21:05:00,71.6,66.9,29.78,NNW,328,0.0,2.0,85,0.00,,,0.01,meteohub,2013-07-01 01:05:00,
2013-06-30 21:11:00,71.4,66.7,29.78,NNW,329,0.0,4.0,85,0.00,,,0.01,meteohub,2013-07-01 01:11:00,
2013-06-30 21:17:00,71.8,67.3,29.78,NNW,329,0.0,4.0,86,0.00,,,0.01,meteohub,2013-07-01 01:17:00,
2013-06-30 21:22:00,72.1,67.1,29.79,NNW,334,0.0,4.0,84,0.00,,,0.01,meteohub,2013-07-01 01:22:00,
2013-06-30 21:27:00,72.3,67.3,29.79,SW,228,2.0,4.0,84,0.00,,,0.01,meteohub,2013-07-01 01:27:00,
2013-06-30 21:32:00,72.5,67.8,29.79,SSE,159,1.0,2.0,85,0.00,,,0.01,meteohub,2013-07-01 01:32:00,
2013-06-30 21:37:00,73.0,68.5,29.79,SE,133,0.0,3.0,86,0.00,,,0.01,meteohub,2013-07-01 01:37:00,
2013-06-30 21:44:00,73.8,68.9,29.79,SW,229,1.0,3.0,85,0.00,,,0.01,meteohub,2013-07-01 01:44:00,
2013-06-30 21:50:00,73.9,68.7,29.80,East,97,0.0,4.0,84,0.00,,,0.01,meteohub,2013-07-01 01:50:00,
2013-06-30 21:56:00,73.8,68.4,29.81,NNW,342,0.0,6.0,83,0.00,,,0.01,meteohub,2013-07-01 01:56:00,
2013-06-30 22:02:00,73.2,68.2,29.81,WNW,297,3.0,6.0,84,0.00,,,0.01,meteohub,2013-07-01 02:02:00,
2013-06-30 22:07:00,73.2,68.4,29.80,South,185,1.0,6.0,85,0.00,,,0.01,meteohub,2013-07-01 02:07:00,
2013-06-30 22:12:00,73.2,68.2,29.81,NNW,340,0.0,8.0,84,0.00,,,0.01,meteohub,2013-07-01 02:12:00,
2013-06-30 22:17:00,73.0,68.2,29.81,NNW,336,2.0,8.0,85,0.00,,,0.01,meteohub,2013-07-01 02:17:00,
2013-06-30 22:22:00,72.9,68.0,29.81,NNW,335,0.0,8.0,85,0.00,,,0.01,meteohub,2013-07-01 02:22:00,
2013-06-30 22:27:00,72.7,67.8,29.82,NNW,335,0.0,3.0,85,0.00,,,0.01,meteohub,2013-07-01 02:27:00,
2013-06-30 22:32:00,72.3,67.8,29.83,NNW,335,0.0,3.0,86,0.00,,,0.01,meteohub,2013-07-01 02:32:00,
2013-06-30 22:37:00,72.3,67.8,29.83,NNW,335,0.0,0.0,86,0.00,,,0.01,meteohub,2013-07-01 02:37:00,
2013-06-30 22:42:00,72.1,68.0,29.83,East,101,0.0,2.0,87,0.00,,,0.01,meteohub,2013-07-01 02:42:00,
2013-06-30 22:48:00,72.0,67.8,29.83,East,98,0.0,2.0,87,0.00,,,0.01,meteohub,2013-07-01 02:48:00,
2013-06-30 22:54:00,72.0,67.8,29.83,East,98,0.0,2.0,87,0.00,,,0.01,meteohub,2013-07-01 02:54:00,
2013-06-30 23:01:00,71.8,68.0,29.83,East,98,0.0,1.0,88,0.00,,,0.01,meteohub,2013-07-01 03:01:00,
2013-06-30 23:07:00,71.6,67.8,29.83,East,98,0.0,1.0,88,0.00,,,0.01,meteohub,2013-07-01 03:07:00,
2013-06-30 23:13:00,71.4,67.6,29.83,East,98,0.0,0.0,88,0.00,,,0.01,meteohub,2013-07-01 03:13:00,
2013-06-30 23:25:00,71.2,67.8,29.83,East,98,0.0,0.0,89,0.00,,,0.01,meteohub,2013-07-01 03:25:00,
2013-06-30 23:32:00,71.2,68.2,29.82,East,98,0.0,1.0,90,0.00,,,0.01,meteohub,2013-07-01 03:32:00,
2013-06-30 23:37:00,71.2,68.2,29.82,ESE,104,0.0,1.0,90,0.00,,,0.01,meteohub,2013-07-01 03:37:00,
2013-06-30 23:42:00,71.1,68.0,29.83,ESE,104,0.0,0.0,90,0.00,,,0.01,meteohub,2013-07-01 03:42:00,
2013-06-30 23:47:00,71.1,67.6,29.82,ESE,104,0.0,0.0,89,0.00,,,0.01,meteohub,2013-07-01 03:47:00,
2013-06-30 23:54:00,70.9,67.5,29.82,ESE,104,0.0,0.0,89,0.00,,,0.01,meteohub,2013-07-01 03:54:00,